DLH187 EDDL-ENBR
Flight info
| Callsign | DLH187 |
|---|---|
| Flight time | 1h 49m |
| Altitude | 35000 |
| Route | MEVEL4T MEVEL Y850 JUWGI Z529 ATPAQ DCT DOROR/N0443F360 DCT BADAB |
| Aircraft | A320/M-SDE3FGHIRWY/LB1 |
Departure
| Time | 2026-05-07 12:04 |
|---|---|
| Airport | Düsseldorf Airport (EDDL) |
Arrival
| Time | 2026-05-07 13:54 |
|---|---|
| Airport | Bergen Airport, Flesland (ENBR) |
| Time | Latitude | Longitude | Altitude | Speed | Heading |
|---|---|---|---|---|---|
| 2026-05-07 10:49 | 51.27909 | 6.76249 | 125 ft | 0 kts | 61° |
| 2026-05-07 11:56 | 51.27899 | 6.76221 | 123 ft | 4 kts | 54° |
| 2026-05-07 11:56 | 51.27881 | 6.76188 | 124 ft | 4 kts | 40° |
| 2026-05-07 11:57 | 51.27860 | 6.76166 | 124 ft | 4 kts | 9° |
| 2026-05-07 11:57 | 51.27842 | 6.76170 | 125 ft | 3 kts | 274° |
| 2026-05-07 11:57 | 51.27841 | 6.76212 | 127 ft | 4 kts | 271° |
| 2026-05-07 11:57 | 51.27840 | 6.76255 | 129 ft | 3 kts | 271° |
| 2026-05-07 11:58 | 51.27840 | 6.76262 | 129 ft | 0 kts | 271° |
| 2026-05-07 12:00 | 51.27840 | 6.76256 | 129 ft | 4 kts | 271° |
| 2026-05-07 12:00 | 51.27841 | 6.76179 | 125 ft | 7 kts | 271° |
| 2026-05-07 12:00 | 51.27842 | 6.76112 | 126 ft | 5 kts | 270° |
| 2026-05-07 12:00 | 51.27861 | 6.76057 | 126 ft | 8 kts | 329° |
| 2026-05-07 12:01 | 51.27938 | 6.76051 | 128 ft | 13 kts | 2° |
| 2026-05-07 12:01 | 51.28031 | 6.76046 | 125 ft | 14 kts | 359° |
| 2026-05-07 12:01 | 51.28107 | 6.75983 | 128 ft | 12 kts | 271° |
| 2026-05-07 12:01 | 51.28061 | 6.75877 | 127 ft | 11 kts | 232° |
| 2026-05-07 12:02 | 51.28018 | 6.75790 | 126 ft | 9 kts | 231° |
| 2026-05-07 12:02 | 51.27981 | 6.75717 | 124 ft | 9 kts | 231° |
| 2026-05-07 12:02 | 51.27935 | 6.75622 | 127 ft | 13 kts | 233° |
| 2026-05-07 12:02 | 51.27873 | 6.75488 | 125 ft | 19 kts | 231° |
| 2026-05-07 12:03 | 51.27859 | 6.75330 | 124 ft | 16 kts | 323° |
| 2026-05-07 12:03 | 51.27967 | 6.75251 | 123 ft | 17 kts | 345° |
| 2026-05-07 12:03 | 51.28012 | 6.75300 | 121 ft | 0 kts | 54° |
| 2026-05-07 12:03 | 51.28046 | 6.75374 | 124 ft | 36 kts | 54° |
| 2026-05-07 12:04 | 51.28356 | 6.76012 | 124 ft | 106 kts | 52° |
| 2026-05-07 12:04 | 51.28921 | 6.77192 | 129 ft | 159 kts | 50° |
| 2026-05-07 12:04 | 51.29630 | 6.78722 | 563 ft | 173 kts | 50° |
| 2026-05-07 12:04 | 51.30374 | 6.80285 | 1277 ft | 178 kts | 50° |
| 2026-05-07 12:05 | 51.31135 | 6.81870 | 1874 ft | 188 kts | 51° |
| 2026-05-07 12:05 | 51.31979 | 6.83643 | 2264 ft | 213 kts | 51° |
| 2026-05-07 12:05 | 51.32921 | 6.85625 | 2685 ft | 237 kts | 51° |
| 2026-05-07 12:05 | 51.33959 | 6.87807 | 3291 ft | 252 kts | 47° |
| 2026-05-07 12:06 | 51.35268 | 6.89679 | 4155 ft | 254 kts | 32° |
| 2026-05-07 12:06 | 51.36876 | 6.90879 | 5077 ft | 257 kts | 15° |
| 2026-05-07 12:06 | 51.38639 | 6.91415 | 5977 ft | 260 kts | 8° |
| 2026-05-07 12:06 | 51.39850 | 6.91732 | 6581 ft | 262 kts | 9° |
| 2026-05-07 12:07 | 51.41666 | 6.92212 | 7369 ft | 267 kts | 9° |
| 2026-05-07 12:07 | 51.43496 | 6.92697 | 8146 ft | 272 kts | 9° |
| 2026-05-07 12:07 | 51.45384 | 6.93199 | 8936 ft | 278 kts | 9° |
| 2026-05-07 12:07 | 51.47313 | 6.93714 | 9733 ft | 283 kts | 9° |
| 2026-05-07 12:08 | 51.49285 | 6.94159 | 10449 ft | 288 kts | 2° |
| 2026-05-07 12:08 | 51.51332 | 6.93961 | 10857 ft | 306 kts | 349° |
| 2026-05-07 12:08 | 51.53508 | 6.93352 | 11070 ft | 329 kts | 349° |
| 2026-05-07 12:08 | 51.55816 | 6.92690 | 11577 ft | 341 kts | 349° |
| 2026-05-07 12:09 | 51.58163 | 6.92012 | 12268 ft | 345 kts | 349° |
| 2026-05-07 12:09 | 51.60540 | 6.91330 | 13009 ft | 349 kts | 348° |
| 2026-05-07 12:09 | 51.62949 | 6.90648 | 13737 ft | 353 kts | 349° |
| 2026-05-07 12:09 | 51.65386 | 6.90011 | 14382 ft | 357 kts | 353° |
| 2026-05-07 12:10 | 51.67881 | 6.90121 | 14999 ft | 363 kts | 8° |
| 2026-05-07 12:10 | 51.70326 | 6.91279 | 15622 ft | 369 kts | 23° |
| 2026-05-07 12:10 | 51.72532 | 6.93435 | 16235 ft | 375 kts | 38° |
| 2026-05-07 12:10 | 51.74348 | 6.96463 | 16856 ft | 380 kts | 52° |
| 2026-05-07 12:11 | 51.75926 | 6.99911 | 17463 ft | 383 kts | 53° |
| 2026-05-07 12:11 | 51.77510 | 7.03389 | 18075 ft | 387 kts | 53° |
| 2026-05-07 12:11 | 51.79115 | 7.06911 | 18643 ft | 390 kts | 53° |
| 2026-05-07 12:11 | 51.80730 | 7.10463 | 19157 ft | 393 kts | 53° |
| 2026-05-07 12:12 | 51.82353 | 7.14039 | 19701 ft | 396 kts | 53° |
| 2026-05-07 12:12 | 51.83985 | 7.17641 | 20208 ft | 399 kts | 53° |
| 2026-05-07 12:12 | 51.85672 | 7.21230 | 20718 ft | 402 kts | 49° |
| 2026-05-07 12:12 | 51.87590 | 7.24524 | 21227 ft | 404 kts | 45° |
| 2026-05-07 12:13 | 51.89546 | 7.27813 | 21726 ft | 407 kts | 46° |
| 2026-05-07 12:13 | 51.91518 | 7.31137 | 22212 ft | 410 kts | 46° |
| 2026-05-07 12:13 | 51.93493 | 7.34474 | 22706 ft | 413 kts | 46° |
| 2026-05-07 12:13 | 51.95492 | 7.37862 | 23192 ft | 416 kts | 46° |
| 2026-05-07 12:14 | 51.97498 | 7.41265 | 23668 ft | 419 kts | 46° |
| 2026-05-07 12:14 | 51.99513 | 7.44684 | 24076 ft | 421 kts | 46° |
| 2026-05-07 12:14 | 52.01577 | 7.48189 | 24488 ft | 424 kts | 46° |
| 2026-05-07 12:14 | 52.03614 | 7.51657 | 24897 ft | 426 kts | 46° |
| 2026-05-07 12:15 | 52.05658 | 7.55147 | 25300 ft | 428 kts | 46° |
| 2026-05-07 12:15 | 52.07710 | 7.58658 | 25691 ft | 430 kts | 46° |
| 2026-05-07 12:15 | 52.09775 | 7.62198 | 26077 ft | 432 kts | 46° |
| 2026-05-07 12:15 | 52.11861 | 7.65744 | 26455 ft | 434 kts | 46° |
| 2026-05-07 12:16 | 52.13986 | 7.69254 | 26823 ft | 437 kts | 42° |
| 2026-05-07 12:16 | 52.16378 | 7.72291 | 27197 ft | 438 kts | 32° |
| 2026-05-07 12:16 | 52.19080 | 7.74639 | 27574 ft | 440 kts | 22° |
| 2026-05-07 12:16 | 52.21974 | 7.76226 | 27944 ft | 441 kts | 12° |
| 2026-05-07 12:17 | 52.25008 | 7.77025 | 28307 ft | 442 kts | 5° |
| 2026-05-07 12:17 | 52.28074 | 7.77512 | 28659 ft | 444 kts | 5° |
| 2026-05-07 12:17 | 52.31159 | 7.78000 | 28998 ft | 446 kts | 5° |
| 2026-05-07 12:17 | 52.34265 | 7.78398 | 29318 ft | 448 kts | 0° |
| 2026-05-07 12:18 | 52.37375 | 7.78149 | 29638 ft | 449 kts | 353° |
| 2026-05-07 12:18 | 52.40493 | 7.77630 | 29940 ft | 451 kts | 353° |
| 2026-05-07 12:18 | 52.43622 | 7.77113 | 30236 ft | 453 kts | 353° |
| 2026-05-07 12:18 | 52.46764 | 7.76597 | 30505 ft | 455 kts | 353° |
| 2026-05-07 12:19 | 52.49915 | 7.76084 | 30824 ft | 455 kts | 353° |
| 2026-05-07 12:19 | 52.53062 | 7.75573 | 31213 ft | 453 kts | 353° |
| 2026-05-07 12:19 | 52.56183 | 7.75026 | 31596 ft | 452 kts | 352° |
| 2026-05-07 12:19 | 52.59300 | 7.74367 | 31964 ft | 451 kts | 351° |
| 2026-05-07 12:20 | 52.62402 | 7.73630 | 32337 ft | 449 kts | 351° |
| 2026-05-07 12:20 | 52.65492 | 7.72862 | 32703 ft | 448 kts | 350° |
| 2026-05-07 12:20 | 52.68573 | 7.72094 | 33066 ft | 448 kts | 350° |
| 2026-05-07 12:20 | 52.71655 | 7.71346 | 33426 ft | 447 kts | 351° |
| 2026-05-07 12:21 | 52.74725 | 7.70618 | 33791 ft | 446 kts | 351° |
| 2026-05-07 12:21 | 52.77792 | 7.69903 | 34134 ft | 445 kts | 351° |
| 2026-05-07 12:21 | 52.80860 | 7.69193 | 34416 ft | 445 kts | 351° |
| 2026-05-07 12:21 | 52.83927 | 7.68487 | 34668 ft | 445 kts | 351° |
| 2026-05-07 12:22 | 52.87005 | 7.67778 | 34914 ft | 446 kts | 351° |
| 2026-05-07 12:22 | 52.90078 | 7.67065 | 35034 ft | 447 kts | 351° |
| 2026-05-07 12:22 | 52.93159 | 7.66348 | 35066 ft | 446 kts | 351° |
| 2026-05-07 12:23 | 52.99297 | 7.64913 | 35064 ft | 445 kts | 351° |
| 2026-05-07 12:23 | 53.05434 | 7.63469 | 35066 ft | 445 kts | 351° |
| 2026-05-07 12:24 | 53.11568 | 7.62012 | 35068 ft | 445 kts | 351° |
| 2026-05-07 12:24 | 53.17697 | 7.60567 | 35073 ft | 445 kts | 351° |
| 2026-05-07 12:25 | 53.23831 | 7.59126 | 35076 ft | 445 kts | 351° |
| 2026-05-07 12:25 | 53.29969 | 7.57675 | 35078 ft | 445 kts | 351° |
| 2026-05-07 12:26 | 53.36097 | 7.56217 | 35082 ft | 445 kts | 351° |
| 2026-05-07 12:26 | 53.42222 | 7.54737 | 35087 ft | 445 kts | 351° |
| 2026-05-07 12:27 | 53.48345 | 7.53263 | 35093 ft | 444 kts | 351° |
| 2026-05-07 12:27 | 53.54464 | 7.51800 | 35093 ft | 444 kts | 352° |
| 2026-05-07 12:28 | 53.60573 | 7.50333 | 35099 ft | 443 kts | 352° |
| 2026-05-07 12:28 | 53.66678 | 7.48851 | 35107 ft | 443 kts | 352° |
| 2026-05-07 12:29 | 53.72770 | 7.47365 | 35106 ft | 442 kts | 352° |
| 2026-05-07 12:29 | 53.78852 | 7.45897 | 35107 ft | 441 kts | 352° |
| 2026-05-07 12:30 | 53.84925 | 7.44412 | 35123 ft | 441 kts | 352° |
| 2026-05-07 12:30 | 53.90997 | 7.42927 | 35125 ft | 440 kts | 352° |
| 2026-05-07 12:31 | 53.97051 | 7.41434 | 35119 ft | 440 kts | 352° |
| 2026-05-07 12:31 | 54.03122 | 7.39952 | 35124 ft | 440 kts | 353° |
| 2026-05-07 12:32 | 54.09185 | 7.38464 | 35132 ft | 440 kts | 352° |
| 2026-05-07 12:32 | 54.15245 | 7.36964 | 35128 ft | 440 kts | 352° |
| 2026-05-07 12:33 | 54.24333 | 7.34704 | 35133 ft | 439 kts | 352° |
| 2026-05-07 12:33 | 54.30377 | 7.33192 | 35136 ft | 439 kts | 352° |
| 2026-05-07 12:34 | 54.36418 | 7.31676 | 35129 ft | 439 kts | 353° |
| 2026-05-07 12:34 | 54.42457 | 7.30171 | 35135 ft | 438 kts | 352° |
| 2026-05-07 12:35 | 54.48489 | 7.28655 | 35133 ft | 438 kts | 352° |
| 2026-05-07 12:35 | 54.54511 | 7.27130 | 35130 ft | 437 kts | 352° |
| 2026-05-07 12:36 | 54.60531 | 7.25606 | 35131 ft | 437 kts | 352° |
| 2026-05-07 12:36 | 54.66589 | 7.24063 | 35134 ft | 437 kts | 352° |
| 2026-05-07 12:37 | 54.72603 | 7.22538 | 35129 ft | 436 kts | 352° |
| 2026-05-07 12:37 | 54.78609 | 7.21002 | 35132 ft | 436 kts | 352° |
| 2026-05-07 12:38 | 54.84613 | 7.19472 | 35133 ft | 436 kts | 352° |
| 2026-05-07 12:38 | 54.90614 | 7.17927 | 35129 ft | 436 kts | 352° |
| 2026-05-07 12:39 | 54.96614 | 7.16373 | 35128 ft | 436 kts | 352° |
| 2026-05-07 12:39 | 55.02607 | 7.14828 | 35125 ft | 435 kts | 352° |
| 2026-05-07 12:40 | 55.08615 | 7.13339 | 35118 ft | 435 kts | 352° |
| 2026-05-07 12:40 | 55.14608 | 7.11861 | 35117 ft | 435 kts | 352° |
| 2026-05-07 12:41 | 55.20606 | 7.10352 | 35121 ft | 435 kts | 352° |
| 2026-05-07 12:41 | 55.26593 | 7.08831 | 35118 ft | 435 kts | 352° |
| 2026-05-07 12:42 | 55.32585 | 7.07319 | 35120 ft | 435 kts | 352° |
| 2026-05-07 12:42 | 55.37565 | 7.06064 | 35120 ft | 435 kts | 351° |
| 2026-05-07 12:43 | 55.43559 | 7.04539 | 35121 ft | 435 kts | 351° |
| 2026-05-07 12:43 | 55.49536 | 7.03009 | 35123 ft | 434 kts | 351° |
| 2026-05-07 12:44 | 55.55527 | 7.01483 | 35124 ft | 434 kts | 351° |
| 2026-05-07 12:44 | 55.61501 | 6.99954 | 35124 ft | 434 kts | 351° |
| 2026-05-07 12:45 | 55.67477 | 6.98409 | 35120 ft | 434 kts | 351° |
| 2026-05-07 12:45 | 55.73457 | 6.96852 | 35121 ft | 435 kts | 351° |
| 2026-05-07 12:46 | 55.79442 | 6.95304 | 35123 ft | 435 kts | 351° |
| 2026-05-07 12:46 | 55.85429 | 6.93755 | 35124 ft | 435 kts | 351° |
| 2026-05-07 12:47 | 55.91422 | 6.92191 | 35125 ft | 435 kts | 350° |
| 2026-05-07 12:47 | 55.94443 | 6.91399 | 34946 ft | 442 kts | 350° |
| 2026-05-07 12:47 | 55.97507 | 6.90596 | 34131 ft | 447 kts | 351° |
| 2026-05-07 12:48 | 56.00593 | 6.89792 | 33234 ft | 450 kts | 351° |
| 2026-05-07 12:48 | 56.03698 | 6.88984 | 32407 ft | 450 kts | 351° |
| 2026-05-07 12:48 | 56.06793 | 6.88177 | 31722 ft | 448 kts | 350° |
| 2026-05-07 12:48 | 56.09870 | 6.87369 | 31085 ft | 445 kts | 350° |
| 2026-05-07 12:49 | 56.12922 | 6.86570 | 30487 ft | 442 kts | 350° |
| 2026-05-07 12:49 | 56.15945 | 6.85775 | 29823 ft | 438 kts | 350° |
| 2026-05-07 12:49 | 56.18950 | 6.84977 | 29141 ft | 435 kts | 350° |
| 2026-05-07 12:49 | 56.21937 | 6.84180 | 28510 ft | 431 kts | 350° |
| 2026-05-07 12:50 | 56.24888 | 6.83393 | 27906 ft | 427 kts | 349° |
| 2026-05-07 12:50 | 56.27808 | 6.82614 | 27313 ft | 423 kts | 349° |
| 2026-05-07 12:50 | 56.30706 | 6.81844 | 26727 ft | 419 kts | 349° |
| 2026-05-07 12:50 | 56.33578 | 6.81077 | 26237 ft | 415 kts | 349° |
| 2026-05-07 12:51 | 56.36442 | 6.80306 | 26112 ft | 416 kts | 349° |
| 2026-05-07 12:51 | 56.39257 | 6.79547 | 25940 ft | 404 kts | 349° |
| 2026-05-07 12:51 | 56.41997 | 6.78815 | 25766 ft | 394 kts | 349° |
| 2026-05-07 12:51 | 56.44705 | 6.78087 | 25591 ft | 391 kts | 349° |
| 2026-05-07 12:52 | 56.47386 | 6.77368 | 25423 ft | 389 kts | 349° |
| 2026-05-07 12:52 | 56.50065 | 6.76652 | 25251 ft | 388 kts | 349° |
| 2026-05-07 12:52 | 56.52726 | 6.75943 | 25082 ft | 387 kts | 349° |
| 2026-05-07 12:52 | 56.55392 | 6.75230 | 24915 ft | 386 kts | 349° |
| 2026-05-07 12:53 | 56.58048 | 6.74516 | 24746 ft | 386 kts | 349° |
| 2026-05-07 12:53 | 56.60696 | 6.73801 | 24582 ft | 385 kts | 348° |
| 2026-05-07 12:53 | 56.63348 | 6.73080 | 24414 ft | 384 kts | 348° |
| 2026-05-07 12:53 | 56.65986 | 6.72359 | 24253 ft | 383 kts | 348° |
| 2026-05-07 12:54 | 56.68612 | 6.71639 | 24087 ft | 382 kts | 348° |
| 2026-05-07 12:54 | 56.71241 | 6.70916 | 23923 ft | 381 kts | 348° |
| 2026-05-07 12:54 | 56.73862 | 6.70196 | 23763 ft | 380 kts | 348° |
| 2026-05-07 12:54 | 56.76480 | 6.69481 | 23584 ft | 380 kts | 348° |
| 2026-05-07 12:55 | 56.79095 | 6.68772 | 23388 ft | 379 kts | 348° |
| 2026-05-07 12:55 | 56.81693 | 6.68067 | 23193 ft | 377 kts | 348° |
| 2026-05-07 12:55 | 56.84286 | 6.67355 | 23000 ft | 376 kts | 348° |
| 2026-05-07 12:55 | 56.86874 | 6.66641 | 22808 ft | 375 kts | 348° |
| 2026-05-07 12:56 | 56.89451 | 6.65929 | 22619 ft | 374 kts | 348° |
| 2026-05-07 12:56 | 56.92020 | 6.65221 | 22430 ft | 373 kts | 348° |
| 2026-05-07 12:56 | 56.94588 | 6.64519 | 22240 ft | 372 kts | 348° |
| 2026-05-07 12:56 | 56.97143 | 6.63822 | 22054 ft | 371 kts | 348° |
| 2026-05-07 12:57 | 56.99687 | 6.63124 | 21869 ft | 370 kts | 348° |
| 2026-05-07 12:57 | 57.02228 | 6.62421 | 21689 ft | 368 kts | 348° |
| 2026-05-07 12:57 | 57.04761 | 6.61714 | 21507 ft | 367 kts | 348° |
| 2026-05-07 12:57 | 57.07277 | 6.61008 | 21321 ft | 366 kts | 348° |
| 2026-05-07 12:58 | 57.09798 | 6.60304 | 21143 ft | 365 kts | 348° |
| 2026-05-07 12:58 | 57.12309 | 6.59605 | 20962 ft | 364 kts | 348° |
| 2026-05-07 12:58 | 57.14804 | 6.58910 | 20784 ft | 363 kts | 348° |
| 2026-05-07 12:58 | 57.17297 | 6.58215 | 20606 ft | 362 kts | 348° |
| 2026-05-07 12:59 | 57.19781 | 6.57523 | 20431 ft | 361 kts | 348° |
| 2026-05-07 12:59 | 57.22263 | 6.56832 | 20255 ft | 360 kts | 348° |
| 2026-05-07 12:59 | 57.24738 | 6.56144 | 20079 ft | 359 kts | 348° |
| 2026-05-07 12:59 | 57.27210 | 6.55457 | 19910 ft | 358 kts | 348° |
| 2026-05-07 13:00 | 57.29668 | 6.54767 | 19737 ft | 357 kts | 348° |
| 2026-05-07 13:00 | 57.32115 | 6.54078 | 19567 ft | 356 kts | 348° |
| 2026-05-07 13:00 | 57.34562 | 6.53388 | 19396 ft | 355 kts | 348° |
| 2026-05-07 13:00 | 57.37000 | 6.52703 | 19231 ft | 354 kts | 348° |
| 2026-05-07 13:01 | 57.39436 | 6.52017 | 19058 ft | 353 kts | 348° |
| 2026-05-07 13:01 | 57.41856 | 6.51330 | 18889 ft | 352 kts | 348° |
| 2026-05-07 13:01 | 57.44274 | 6.50640 | 18723 ft | 351 kts | 348° |
| 2026-05-07 13:01 | 57.46692 | 6.49952 | 18558 ft | 350 kts | 348° |
| 2026-05-07 13:02 | 57.49102 | 6.49268 | 18388 ft | 350 kts | 348° |
| 2026-05-07 13:02 | 57.51497 | 6.48585 | 18198 ft | 349 kts | 348° |
| 2026-05-07 13:02 | 57.53890 | 6.47900 | 18016 ft | 348 kts | 348° |
| 2026-05-07 13:02 | 57.56281 | 6.47218 | 17816 ft | 347 kts | 348° |
| 2026-05-07 13:03 | 57.58665 | 6.46540 | 17626 ft | 346 kts | 348° |
| 2026-05-07 13:03 | 57.61043 | 6.45866 | 17440 ft | 345 kts | 348° |
| 2026-05-07 13:03 | 57.63408 | 6.45197 | 17251 ft | 344 kts | 348° |
| 2026-05-07 13:03 | 57.65776 | 6.44525 | 17061 ft | 343 kts | 348° |
| 2026-05-07 13:04 | 57.68133 | 6.43851 | 16928 ft | 342 kts | 348° |
| 2026-05-07 13:04 | 57.70479 | 6.43173 | 16812 ft | 342 kts | 348° |
| 2026-05-07 13:04 | 57.72829 | 6.42492 | 16713 ft | 341 kts | 348° |
| 2026-05-07 13:04 | 57.75173 | 6.41812 | 16610 ft | 341 kts | 348° |
| 2026-05-07 13:05 | 57.77515 | 6.41134 | 16506 ft | 340 kts | 348° |
| 2026-05-07 13:05 | 57.79853 | 6.40459 | 16407 ft | 340 kts | 348° |
| 2026-05-07 13:05 | 57.82190 | 6.39784 | 16303 ft | 339 kts | 348° |
| 2026-05-07 13:05 | 57.84521 | 6.39110 | 16203 ft | 339 kts | 348° |
| 2026-05-07 13:06 | 57.86849 | 6.38432 | 16100 ft | 338 kts | 348° |
| 2026-05-07 13:06 | 57.89174 | 6.37753 | 15996 ft | 338 kts | 348° |
| 2026-05-07 13:06 | 57.91499 | 6.37076 | 15894 ft | 337 kts | 348° |
| 2026-05-07 13:06 | 57.93813 | 6.36405 | 15797 ft | 337 kts | 348° |
| 2026-05-07 13:07 | 57.96134 | 6.35732 | 15686 ft | 337 kts | 348° |
| 2026-05-07 13:07 | 57.98446 | 6.35057 | 15589 ft | 336 kts | 348° |
| 2026-05-07 13:07 | 58.00755 | 6.34381 | 15489 ft | 336 kts | 348° |
| 2026-05-07 13:07 | 58.03060 | 6.33706 | 15387 ft | 335 kts | 348° |
| 2026-05-07 13:08 | 58.05360 | 6.33033 | 15290 ft | 335 kts | 348° |
| 2026-05-07 13:08 | 58.07659 | 6.32361 | 15188 ft | 334 kts | 348° |
| 2026-05-07 13:08 | 58.09954 | 6.31687 | 15085 ft | 334 kts | 348° |
| 2026-05-07 13:08 | 58.12251 | 6.31011 | 14986 ft | 333 kts | 348° |
| 2026-05-07 13:09 | 58.14540 | 6.30339 | 14881 ft | 333 kts | 348° |
| 2026-05-07 13:09 | 58.16826 | 6.29668 | 14791 ft | 332 kts | 348° |
| 2026-05-07 13:09 | 58.19112 | 6.28995 | 14683 ft | 332 kts | 348° |
| 2026-05-07 13:09 | 58.21396 | 6.28321 | 14572 ft | 331 kts | 348° |
| 2026-05-07 13:10 | 58.23668 | 6.27647 | 14451 ft | 331 kts | 348° |
| 2026-05-07 13:10 | 58.25941 | 6.26967 | 14325 ft | 330 kts | 347° |
| 2026-05-07 13:10 | 58.28210 | 6.26288 | 14205 ft | 330 kts | 348° |
| 2026-05-07 13:10 | 58.30480 | 6.25615 | 14087 ft | 329 kts | 348° |
| 2026-05-07 13:11 | 58.32742 | 6.24946 | 13961 ft | 329 kts | 347° |
| 2026-05-07 13:11 | 58.34998 | 6.24274 | 13834 ft | 328 kts | 347° |
| 2026-05-07 13:11 | 58.37255 | 6.23598 | 13695 ft | 328 kts | 347° |
| 2026-05-07 13:11 | 58.39536 | 6.22916 | 13549 ft | 327 kts | 348° |
| 2026-05-07 13:12 | 58.41756 | 6.22255 | 13416 ft | 327 kts | 347° |
| 2026-05-07 13:12 | 58.44032 | 6.21576 | 13267 ft | 326 kts | 348° |
| 2026-05-07 13:12 | 58.46238 | 6.20913 | 13144 ft | 325 kts | 348° |
| 2026-05-07 13:12 | 58.48498 | 6.20231 | 13007 ft | 324 kts | 348° |
| 2026-05-07 13:13 | 58.50726 | 6.19558 | 12870 ft | 324 kts | 348° |
| 2026-05-07 13:13 | 58.52931 | 6.18891 | 12734 ft | 324 kts | 348° |
| 2026-05-07 13:13 | 58.55153 | 6.18222 | 12603 ft | 323 kts | 348° |
| 2026-05-07 13:13 | 58.57403 | 6.17547 | 12464 ft | 323 kts | 348° |
| 2026-05-07 13:14 | 58.59626 | 6.16878 | 12331 ft | 323 kts | 348° |
| 2026-05-07 13:14 | 58.61815 | 6.16217 | 12201 ft | 322 kts | 348° |
| 2026-05-07 13:14 | 58.64028 | 6.15543 | 12073 ft | 323 kts | 348° |
| 2026-05-07 13:14 | 58.66242 | 6.14866 | 11936 ft | 321 kts | 348° |
| 2026-05-07 13:15 | 58.68451 | 6.14189 | 11802 ft | 321 kts | 348° |
| 2026-05-07 13:15 | 58.70654 | 6.13515 | 11674 ft | 321 kts | 348° |
| 2026-05-07 13:15 | 58.72855 | 6.12845 | 11555 ft | 321 kts | 348° |
| 2026-05-07 13:15 | 58.75058 | 6.12178 | 11417 ft | 320 kts | 348° |
| 2026-05-07 13:16 | 58.77256 | 6.11511 | 11290 ft | 319 kts | 348° |
| 2026-05-07 13:16 | 58.79454 | 6.10846 | 11158 ft | 319 kts | 348° |
| 2026-05-07 13:16 | 58.81645 | 6.10182 | 11027 ft | 319 kts | 348° |
| 2026-05-07 13:16 | 58.83834 | 6.09513 | 10905 ft | 319 kts | 348° |
| 2026-05-07 13:17 | 58.86024 | 6.08839 | 10774 ft | 318 kts | 348° |
| 2026-05-07 13:17 | 58.88209 | 6.08164 | 10649 ft | 318 kts | 348° |
| 2026-05-07 13:17 | 58.90396 | 6.07489 | 10522 ft | 318 kts | 348° |
| 2026-05-07 13:17 | 58.92581 | 6.06818 | 10394 ft | 318 kts | 349° |
| 2026-05-07 13:18 | 58.94766 | 6.06146 | 10270 ft | 317 kts | 349° |
| 2026-05-07 13:18 | 58.96945 | 6.05476 | 10149 ft | 317 kts | 349° |
| 2026-05-07 13:18 | 58.99120 | 6.04805 | 10007 ft | 308 kts | 349° |
| 2026-05-07 13:18 | 59.01203 | 6.04161 | 9873 ft | 297 kts | 348° |
| 2026-05-07 13:19 | 59.03196 | 6.03540 | 9739 ft | 292 kts | 349° |
| 2026-05-07 13:19 | 59.05219 | 6.02907 | 9601 ft | 291 kts | 348° |
| 2026-05-07 13:19 | 59.07211 | 6.02279 | 9457 ft | 290 kts | 348° |
| 2026-05-07 13:19 | 59.09197 | 6.01596 | 9321 ft | 289 kts | 347° |
| 2026-05-07 13:20 | 59.10504 | 6.01108 | 9216 ft | 289 kts | 347° |
| 2026-05-07 13:20 | 59.12475 | 6.00349 | 9081 ft | 288 kts | 347° |
| 2026-05-07 13:20 | 59.14438 | 5.99581 | 9086 ft | 288 kts | 347° |
| 2026-05-07 13:20 | 59.16407 | 5.98814 | 9093 ft | 289 kts | 347° |
| 2026-05-07 13:21 | 59.18376 | 5.98055 | 9087 ft | 289 kts | 347° |
| 2026-05-07 13:21 | 59.20346 | 5.97302 | 9092 ft | 289 kts | 347° |
| 2026-05-07 13:21 | 59.22315 | 5.96549 | 9092 ft | 289 kts | 347° |
| 2026-05-07 13:21 | 59.24294 | 5.95789 | 9096 ft | 289 kts | 347° |
| 2026-05-07 13:22 | 59.26259 | 5.95034 | 9072 ft | 289 kts | 347° |
| 2026-05-07 13:22 | 59.28234 | 5.94280 | 9082 ft | 289 kts | 347° |
| 2026-05-07 13:22 | 59.30205 | 5.93528 | 9078 ft | 289 kts | 347° |
| 2026-05-07 13:22 | 59.32177 | 5.92770 | 9077 ft | 289 kts | 347° |
| 2026-05-07 13:23 | 59.34149 | 5.92007 | 9079 ft | 289 kts | 347° |
| 2026-05-07 13:23 | 59.36128 | 5.91240 | 9076 ft | 289 kts | 347° |
| 2026-05-07 13:23 | 59.38092 | 5.90478 | 9081 ft | 289 kts | 347° |
| 2026-05-07 13:23 | 59.40064 | 5.89714 | 9083 ft | 289 kts | 347° |
| 2026-05-07 13:24 | 59.42036 | 5.88954 | 9095 ft | 289 kts | 347° |
| 2026-05-07 13:24 | 59.44026 | 5.88348 | 9085 ft | 290 kts | 353° |
| 2026-05-07 13:24 | 59.46034 | 5.88039 | 9089 ft | 290 kts | 353° |
| 2026-05-07 13:24 | 59.48047 | 5.87718 | 9087 ft | 290 kts | 353° |
| 2026-05-07 13:25 | 59.50063 | 5.87389 | 9086 ft | 290 kts | 353° |
| 2026-05-07 13:25 | 59.52074 | 5.87059 | 9085 ft | 290 kts | 353° |
| 2026-05-07 13:25 | 59.54086 | 5.86729 | 9085 ft | 290 kts | 353° |
| 2026-05-07 13:25 | 59.56105 | 5.86402 | 9077 ft | 290 kts | 354° |
| 2026-05-07 13:26 | 59.58119 | 5.86074 | 9088 ft | 290 kts | 353° |
| 2026-05-07 13:26 | 59.60128 | 5.85744 | 9092 ft | 290 kts | 353° |
| 2026-05-07 13:26 | 59.62135 | 5.85411 | 9099 ft | 290 kts | 353° |
| 2026-05-07 13:26 | 59.64153 | 5.85079 | 9105 ft | 290 kts | 353° |
| 2026-05-07 13:27 | 59.66156 | 5.84752 | 9106 ft | 290 kts | 353° |
| 2026-05-07 13:27 | 59.68166 | 5.84422 | 9108 ft | 290 kts | 353° |
| 2026-05-07 13:27 | 59.70180 | 5.84090 | 9102 ft | 290 kts | 353° |
| 2026-05-07 13:27 | 59.72194 | 5.83760 | 9106 ft | 290 kts | 353° |
| 2026-05-07 13:28 | 59.74206 | 5.83428 | 9109 ft | 290 kts | 353° |
| 2026-05-07 13:28 | 59.76219 | 5.83088 | 9114 ft | 290 kts | 353° |
| 2026-05-07 13:28 | 59.78235 | 5.82744 | 9111 ft | 290 kts | 353° |
| 2026-05-07 13:28 | 59.80243 | 5.82403 | 9105 ft | 291 kts | 353° |
| 2026-05-07 13:29 | 59.82254 | 5.82033 | 9100 ft | 289 kts | 350° |
| 2026-05-07 13:29 | 59.84238 | 5.81348 | 9101 ft | 289 kts | 347° |
| 2026-05-07 13:29 | 59.86217 | 5.80637 | 9096 ft | 289 kts | 348° |
| 2026-05-07 13:29 | 59.88203 | 5.79928 | 9102 ft | 289 kts | 348° |
| 2026-05-07 13:30 | 59.90179 | 5.79221 | 9100 ft | 289 kts | 348° |
| 2026-05-07 13:30 | 59.92161 | 5.78509 | 9099 ft | 289 kts | 348° |
| 2026-05-07 13:30 | 59.94142 | 5.77795 | 9104 ft | 289 kts | 348° |
| 2026-05-07 13:30 | 59.96122 | 5.77079 | 9103 ft | 289 kts | 347° |
| 2026-05-07 13:31 | 59.98101 | 5.76364 | 9106 ft | 289 kts | 348° |
| 2026-05-07 13:31 | 60.00084 | 5.75650 | 9105 ft | 289 kts | 348° |
| 2026-05-07 13:31 | 60.02070 | 5.74935 | 9074 ft | 290 kts | 348° |
| 2026-05-07 13:31 | 60.04046 | 5.74219 | 8930 ft | 289 kts | 348° |
| 2026-05-07 13:32 | 60.06068 | 5.73487 | 8800 ft | 307 kts | 348° |
| 2026-05-07 13:32 | 60.08140 | 5.72735 | 8660 ft | 295 kts | 348° |
| 2026-05-07 13:32 | 60.10114 | 5.72019 | 8526 ft | 283 kts | 348° |
| 2026-05-07 13:32 | 60.12020 | 5.71326 | 8403 ft | 272 kts | 348° |
| 2026-05-07 13:33 | 60.13847 | 5.70675 | 8271 ft | 261 kts | 349° |
| 2026-05-07 13:33 | 60.15608 | 5.70139 | 8138 ft | 251 kts | 350° |
| 2026-05-07 13:33 | 60.17323 | 5.69662 | 8004 ft | 248 kts | 351° |
| 2026-05-07 13:33 | 60.19034 | 5.69200 | 7881 ft | 248 kts | 351° |
| 2026-05-07 13:34 | 60.20736 | 5.68741 | 7747 ft | 246 kts | 351° |
| 2026-05-07 13:34 | 60.24130 | 5.67813 | 7491 ft | 245 kts | 351° |
| 2026-05-07 13:34 | 60.25821 | 5.67344 | 7366 ft | 245 kts | 351° |
| 2026-05-07 13:35 | 60.27500 | 5.66879 | 7237 ft | 244 kts | 351° |
| 2026-05-07 13:35 | 60.29175 | 5.66407 | 7105 ft | 243 kts | 351° |
| 2026-05-07 13:35 | 60.30849 | 5.65937 | 6977 ft | 243 kts | 351° |
| 2026-05-07 13:35 | 60.32516 | 5.65469 | 6854 ft | 242 kts | 351° |
| 2026-05-07 13:36 | 60.34185 | 5.65000 | 6720 ft | 242 kts | 351° |
| 2026-05-07 13:36 | 60.35844 | 5.64533 | 6596 ft | 241 kts | 351° |
| 2026-05-07 13:36 | 60.37500 | 5.64066 | 6465 ft | 240 kts | 352° |
| 2026-05-07 13:36 | 60.39162 | 5.63597 | 6329 ft | 240 kts | 352° |
| 2026-05-07 13:37 | 60.40807 | 5.63131 | 6200 ft | 239 kts | 352° |
| 2026-05-07 13:37 | 60.42453 | 5.62660 | 6075 ft | 236 kts | 351° |
| 2026-05-07 13:37 | 60.44044 | 5.62204 | 5979 ft | 226 kts | 352° |
| 2026-05-07 13:37 | 60.45565 | 5.61773 | 5991 ft | 216 kts | 352° |
| 2026-05-07 13:38 | 60.47045 | 5.61352 | 5991 ft | 214 kts | 351° |
| 2026-05-07 13:38 | 60.48527 | 5.61163 | 5987 ft | 213 kts | 1° |
| 2026-05-07 13:38 | 60.50014 | 5.61220 | 5988 ft | 214 kts | 1° |
| 2026-05-07 13:38 | 60.51507 | 5.61265 | 5993 ft | 214 kts | 0° |
| 2026-05-07 13:39 | 60.52994 | 5.61251 | 5987 ft | 214 kts | 354° |
| 2026-05-07 13:39 | 60.54456 | 5.60665 | 5929 ft | 214 kts | 340° |
| 2026-05-07 13:39 | 60.55856 | 5.59658 | 5802 ft | 213 kts | 340° |
| 2026-05-07 13:39 | 60.57257 | 5.58662 | 5657 ft | 213 kts | 340° |
| 2026-05-07 13:40 | 60.58637 | 5.57584 | 5538 ft | 212 kts | 332° |
| 2026-05-07 13:40 | 60.59864 | 5.55967 | 5397 ft | 211 kts | 319° |
| 2026-05-07 13:40 | 60.61000 | 5.54065 | 5287 ft | 211 kts | 319° |
| 2026-05-07 13:40 | 60.62138 | 5.52174 | 5150 ft | 211 kts | 319° |
| 2026-05-07 13:41 | 60.63212 | 5.50247 | 5067 ft | 201 kts | 311° |
| 2026-05-07 13:41 | 60.64029 | 5.48018 | 4909 ft | 193 kts | 298° |
| 2026-05-07 13:41 | 60.64707 | 5.45663 | 4777 ft | 187 kts | 298° |
| 2026-05-07 13:41 | 60.65350 | 5.43440 | 4642 ft | 183 kts | 298° |
| 2026-05-07 13:42 | 60.65982 | 5.41217 | 4502 ft | 175 kts | 294° |
| 2026-05-07 13:42 | 60.66410 | 5.38988 | 4376 ft | 169 kts | 283° |
| 2026-05-07 13:42 | 60.66634 | 5.36667 | 4255 ft | 161 kts | 276° |
| 2026-05-07 13:42 | 60.66799 | 5.34475 | 4136 ft | 153 kts | 272° |
| 2026-05-07 13:43 | 60.66742 | 5.32375 | 4061 ft | 146 kts | 254° |
| 2026-05-07 13:43 | 60.66385 | 5.30449 | 4006 ft | 142 kts | 237° |
| 2026-05-07 13:43 | 60.65788 | 5.28870 | 4003 ft | 140 kts | 221° |
| 2026-05-07 13:43 | 60.65011 | 5.27722 | 3994 ft | 139 kts | 206° |
| 2026-05-07 13:44 | 60.64099 | 5.27060 | 3999 ft | 139 kts | 190° |
| 2026-05-07 13:44 | 60.63138 | 5.26936 | 4001 ft | 138 kts | 176° |
| 2026-05-07 13:44 | 60.62184 | 5.27030 | 4015 ft | 141 kts | 177° |
| 2026-05-07 13:44 | 60.61198 | 5.27114 | 4010 ft | 140 kts | 178° |
| 2026-05-07 13:45 | 60.60237 | 5.27198 | 4003 ft | 138 kts | 177° |
| 2026-05-07 13:45 | 60.59273 | 5.27284 | 4004 ft | 139 kts | 178° |
| 2026-05-07 13:45 | 60.58306 | 5.27371 | 4004 ft | 138 kts | 178° |
| 2026-05-07 13:45 | 60.57342 | 5.27462 | 3998 ft | 139 kts | 178° |
| 2026-05-07 13:46 | 60.56374 | 5.27546 | 3996 ft | 141 kts | 176° |
| 2026-05-07 13:46 | 60.55400 | 5.27631 | 4012 ft | 142 kts | 175° |
| 2026-05-07 13:46 | 60.54435 | 5.27717 | 4018 ft | 141 kts | 178° |
| 2026-05-07 13:46 | 60.53449 | 5.27805 | 4000 ft | 139 kts | 177° |
| 2026-05-07 13:47 | 60.52494 | 5.27793 | 3997 ft | 139 kts | 186° |
| 2026-05-07 13:47 | 60.51558 | 5.27308 | 3999 ft | 140 kts | 200° |
| 2026-05-07 13:47 | 60.50696 | 5.26335 | 3728 ft | 144 kts | 215° |
| 2026-05-07 13:47 | 60.49991 | 5.24924 | 3499 ft | 142 kts | 230° |
| 2026-05-07 13:48 | 60.49472 | 5.23220 | 3335 ft | 142 kts | 238° |
| 2026-05-07 13:48 | 60.48990 | 5.21489 | 3210 ft | 141 kts | 238° |
| 2026-05-07 13:48 | 60.48501 | 5.19747 | 3170 ft | 144 kts | 238° |
| 2026-05-07 13:48 | 60.47939 | 5.18117 | 3069 ft | 140 kts | 224° |
| 2026-05-07 13:49 | 60.47161 | 5.16956 | 3009 ft | 138 kts | 205° |
| 2026-05-07 13:49 | 60.46248 | 5.16390 | 3007 ft | 138 kts | 182° |
| 2026-05-07 13:49 | 60.45299 | 5.16622 | 3005 ft | 138 kts | 175° |
| 2026-05-07 13:49 | 60.44335 | 5.16845 | 3021 ft | 140 kts | 172° |
| 2026-05-07 13:50 | 60.43359 | 5.17127 | 2859 ft | 140 kts | 170° |
| 2026-05-07 13:50 | 60.42371 | 5.17433 | 2685 ft | 150 kts | 171° |
| 2026-05-07 13:50 | 60.41355 | 5.17768 | 2458 ft | 145 kts | 171° |
| 2026-05-07 13:50 | 60.40377 | 5.18093 | 2277 ft | 143 kts | 172° |
| 2026-05-07 13:51 | 60.39394 | 5.18426 | 2055 ft | 141 kts | 172° |
| 2026-05-07 13:51 | 60.38425 | 5.18752 | 1867 ft | 139 kts | 172° |
| 2026-05-07 13:51 | 60.37488 | 5.19068 | 1690 ft | 139 kts | 171° |
| 2026-05-07 13:51 | 60.36532 | 5.19391 | 1501 ft | 137 kts | 173° |
| 2026-05-07 13:52 | 60.35593 | 5.19707 | 1296 ft | 138 kts | 172° |
| 2026-05-07 13:52 | 60.34649 | 5.20025 | 1098 ft | 137 kts | 172° |
| 2026-05-07 13:52 | 60.33701 | 5.20345 | 910 ft | 139 kts | 173° |
| 2026-05-07 13:52 | 60.32748 | 5.20665 | 689 ft | 138 kts | 173° |
| 2026-05-07 13:53 | 60.31800 | 5.20984 | 494 ft | 138 kts | 172° |
| 2026-05-07 13:53 | 60.30850 | 5.21304 | 313 ft | 138 kts | 173° |
| 2026-05-07 13:53 | 60.29942 | 5.21592 | 173 ft | 120 kts | 171° |
| 2026-05-07 13:53 | 60.29257 | 5.21837 | 164 ft | 85 kts | 170° |
| 2026-05-07 13:54 | 60.28758 | 5.21999 | 160 ft | 50 kts | 171° |
| 2026-05-07 13:54 | 60.28666 | 5.22160 | 160 ft | 13 kts | 66° |
| 2026-05-07 13:54 | 60.28688 | 5.22319 | 160 ft | 11 kts | 77° |
| 2026-05-07 13:54 | 60.28704 | 5.22462 | 160 ft | 10 kts | 77° |
| 2026-05-07 13:55 | 60.28722 | 5.22584 | 160 ft | 8 kts | 58° |
| 2026-05-07 13:55 | 60.28763 | 5.22646 | 160 ft | 7 kts | 34° |
| 2026-05-07 13:55 | 60.28784 | 5.22674 | 160 ft | 3 kts | 29° |
| 2026-05-07 13:55 | 60.28798 | 5.22681 | 160 ft | 1 kts | 9° |
| 2026-05-07 13:56 | 60.28805 | 5.22688 | 161 ft | 2 kts | 25° |
| 2026-05-07 13:56 | 60.28812 | 5.22697 | 161 ft | 0 kts | 29° |
| 2026-05-07 14:00 | 60.28813 | 5.22697 | 161 ft | 0 kts | 29° |